sensor_id;sensor_type;location;lat;lon;timestamp;P1;durP1;ratioP1;P2;durP2;ratioP2
39370;SDS011;25099;51.946;4.838;2024-03-22T00:00:06;50.63;;;31.45;;
39370;SDS011;25099;51.946;4.838;2024-03-22T00:02:36;58.35;;;33.28;;
39370;SDS011;25099;51.946;4.838;2024-03-22T00:05:02;60.08;;;32.10;;
39370;SDS011;25099;51.946;4.838;2024-03-22T00:07:28;56.85;;;33.28;;
39370;SDS011;25099;51.946;4.838;2024-03-22T00:09:54;54.22;;;32.22;;
39370;SDS011;25099;51.946;4.838;2024-03-22T00:12:19;56.75;;;32.85;;
39370;SDS011;25099;51.946;4.838;2024-03-22T00:14:45;53.42;;;34.03;;
39370;SDS011;25099;51.946;4.838;2024-03-22T00:17:10;48.65;;;30.98;;
39370;SDS011;25099;51.946;4.838;2024-03-22T00:19:36;63.78;;;32.63;;
39370;SDS011;25099;51.946;4.838;2024-03-22T00:22:01;52.17;;;30.25;;
39370;SDS011;25099;51.946;4.838;2024-03-22T00:24:27;56.53;;;31.20;;
39370;SDS011;25099;51.946;4.838;2024-03-22T00:26:53;52.05;;;30.10;;
39370;SDS011;25099;51.946;4.838;2024-03-22T00:29:18;48.03;;;30.33;;
39370;SDS011;25099;51.946;4.838;2024-03-22T00:31:44;53.95;;;30.98;;
39370;SDS011;25099;51.946;4.838;2024-03-22T00:34:09;55.17;;;30.88;;
39370;SDS011;25099;51.946;4.838;2024-03-22T00:36:35;51.25;;;31.35;;
39370;SDS011;25099;51.946;4.838;2024-03-22T00:39:01;57.03;;;31.88;;
39370;SDS011;25099;51.946;4.838;2024-03-22T00:41:26;51.28;;;29.98;;
39370;SDS011;25099;51.946;4.838;2024-03-22T00:43:52;55.38;;;29.88;;
39370;SDS011;25099;51.946;4.838;2024-03-22T00:46:17;49.40;;;28.25;;
39370;SDS011;25099;51.946;4.838;2024-03-22T00:48:43;51.47;;;28.90;;
39370;SDS011;25099;51.946;4.838;2024-03-22T00:51:08;47.90;;;28.85;;
39370;SDS011;25099;51.946;4.838;2024-03-22T00:53:34;47.92;;;28.40;;
39370;SDS011;25099;51.946;4.838;2024-03-22T00:56:00;47.45;;;28.83;;
39370;SDS011;25099;51.946;4.838;2024-03-22T00:58:28;51.65;;;29.38;;
39370;SDS011;25099;51.946;4.838;2024-03-22T01:00:54;52.20;;;29.38;;
39370;SDS011;25099;51.946;4.838;2024-03-22T01:03:23;49.22;;;30.58;;
39370;SDS011;25099;51.946;4.838;2024-03-22T01:05:49;58.95;;;30.67;;
39370;SDS011;25099;51.946;4.838;2024-03-22T01:08:14;52.10;;;29.92;;
39370;SDS011;25099;51.946;4.838;2024-03-22T01:10:40;49.72;;;30.33;;
39370;SDS011;25099;51.946;4.838;2024-03-22T01:13:06;46.05;;;28.90;;
39370;SDS011;25099;51.946;4.838;2024-03-22T01:15:32;57.47;;;30.60;;
39370;SDS011;25099;51.946;4.838;2024-03-22T01:17:57;51.38;;;30.35;;
39370;SDS011;25099;51.946;4.838;2024-03-22T01:20:23;51.20;;;30.92;;
39370;SDS011;25099;51.946;4.838;2024-03-22T01:22:49;57.95;;;31.95;;
39370;SDS011;25099;51.946;4.838;2024-03-22T01:25:14;53.78;;;30.42;;
39370;SDS011;25099;51.946;4.838;2024-03-22T01:27:40;57.75;;;30.67;;
39370;SDS011;25099;51.946;4.838;2024-03-22T01:30:06;63.58;;;34.38;;
39370;SDS011;25099;51.946;4.838;2024-03-22T01:32:31;64.13;;;34.78;;
39370;SDS011;25099;51.946;4.838;2024-03-22T01:34:57;65.43;;;35.40;;
39370;SDS011;25099;51.946;4.838;2024-03-22T01:37:23;64.22;;;37.55;;
39370;SDS011;25099;51.946;4.838;2024-03-22T01:39:48;66.45;;;36.63;;
39370;SDS011;25099;51.946;4.838;2024-03-22T01:42:14;77.88;;;39.42;;
39370;SDS011;25099;51.946;4.838;2024-03-22T01:44:39;69.25;;;37.40;;
39370;SDS011;25099;51.946;4.838;2024-03-22T01:47:07;72.05;;;38.40;;
39370;SDS011;25099;51.946;4.838;2024-03-22T01:49:32;75.40;;;39.85;;
39370;SDS011;25099;51.946;4.838;2024-03-22T01:51:58;72.63;;;38.72;;
39370;SDS011;25099;51.946;4.838;2024-03-22T01:54:24;77.28;;;40.10;;
39370;SDS011;25099;51.946;4.838;2024-03-22T01:56:49;75.53;;;37.97;;
39370;SDS011;25099;51.946;4.838;2024-03-22T01:59:15;79.05;;;39.97;;
39370;SDS011;25099;51.946;4.838;2024-03-22T02:01:41;79.25;;;40.15;;
39370;SDS011;25099;51.946;4.838;2024-03-22T02:04:07;79.32;;;41.33;;
39370;SDS011;25099;51.946;4.838;2024-03-22T02:06:32;83.10;;;42.22;;
39370;SDS011;25099;51.946;4.838;2024-03-22T02:08:58;84.75;;;42.30;;
39370;SDS011;25099;51.946;4.838;2024-03-22T02:11:24;81.82;;;42.42;;
39370;SDS011;25099;51.946;4.838;2024-03-22T02:13:51;83.93;;;43.42;;
39370;SDS011;25099;51.946;4.838;2024-03-22T02:16:17;79.47;;;41.53;;
39370;SDS011;25099;51.946;4.838;2024-03-22T02:18:42;85.70;;;42.95;;
39370;SDS011;25099;51.946;4.838;2024-03-22T02:21:09;82.20;;;41.28;;
39370;SDS011;25099;51.946;4.838;2024-03-22T02:23:36;78.40;;;40.45;;
39370;SDS011;25099;51.946;4.838;2024-03-22T02:26:02;82.95;;;40.58;;
39370;SDS011;25099;51.946;4.838;2024-03-22T02:28:29;75.25;;;39.10;;
39370;SDS011;25099;51.946;4.838;2024-03-22T02:30:55;78.40;;;39.47;;
39370;SDS011;25099;51.946;4.838;2024-03-22T02:33:21;71.32;;;37.50;;
39370;SDS011;25099;51.946;4.838;2024-03-22T02:35:47;80.25;;;38.90;;
39370;SDS011;25099;51.946;4.838;2024-03-22T02:38:13;73.85;;;36.65;;
39370;SDS011;25099;51.946;4.838;2024-03-22T02:40:39;76.45;;;36.15;;
39370;SDS011;25099;51.946;4.838;2024-03-22T02:43:04;65.25;;;31.85;;
39370;SDS011;25099;51.946;4.838;2024-03-22T02:45:30;64.82;;;34.08;;
39370;SDS011;25099;51.946;4.838;2024-03-22T02:47:56;71.75;;;32.78;;
39370;SDS011;25099;51.946;4.838;2024-03-22T02:50:21;64.05;;;31.10;;
39370;SDS011;25099;51.946;4.838;2024-03-22T02:52:50;58.45;;;30.73;;
39370;SDS011;25099;51.946;4.838;2024-03-22T02:55:15;61.00;;;29.77;;
39370;SDS011;25099;51.946;4.838;2024-03-22T02:57:41;62.08;;;30.73;;
39370;SDS011;25099;51.946;4.838;2024-03-22T03:00:07;65.40;;;31.30;;
39370;SDS011;25099;51.946;4.838;2024-03-22T03:02:33;64.85;;;31.38;;
39370;SDS011;25099;51.946;4.838;2024-03-22T03:04:58;65.20;;;32.05;;
39370;SDS011;25099;51.946;4.838;2024-03-22T03:07:24;64.97;;;31.38;;
39370;SDS011;25099;51.946;4.838;2024-03-22T03:09:50;59.67;;;30.52;;
39370;SDS011;25099;51.946;4.838;2024-03-22T03:12:16;55.70;;;30.83;;
39370;SDS011;25099;51.946;4.838;2024-03-22T03:14:41;57.10;;;29.08;;
39370;SDS011;25099;51.946;4.838;2024-03-22T03:17:07;63.63;;;31.55;;
39370;SDS011;25099;51.946;4.838;2024-03-22T03:19:33;62.78;;;30.75;;
39370;SDS011;25099;51.946;4.838;2024-03-22T03:21:58;63.88;;;30.55;;
39370;SDS011;25099;51.946;4.838;2024-03-22T03:24:24;59.78;;;30.60;;
39370;SDS011;25099;51.946;4.838;2024-03-22T03:26:49;61.38;;;30.02;;
39370;SDS011;25099;51.946;4.838;2024-03-22T03:29:15;65.70;;;30.73;;
39370;SDS011;25099;51.946;4.838;2024-03-22T03:31:41;51.20;;;27.65;;
39370;SDS011;25099;51.946;4.838;2024-03-22T03:34:06;49.78;;;29.98;;
39370;SDS011;25099;51.946;4.838;2024-03-22T03:36:32;55.47;;;30.77;;
39370;SDS011;25099;51.946;4.838;2024-03-22T03:38:57;54.17;;;29.55;;
39370;SDS011;25099;51.946;4.838;2024-03-22T03:41:23;59.10;;;32.38;;
39370;SDS011;25099;51.946;4.838;2024-03-22T03:43:48;57.05;;;31.50;;
39370;SDS011;25099;51.946;4.838;2024-03-22T03:46:14;59.40;;;31.70;;
39370;SDS011;25099;51.946;4.838;2024-03-22T03:48:39;55.72;;;31.35;;
39370;SDS011;25099;51.946;4.838;2024-03-22T03:51:05;55.97;;;30.17;;
39370;SDS011;25099;51.946;4.838;2024-03-22T03:53:30;64.13;;;29.75;;
39370;SDS011;25099;51.946;4.838;2024-03-22T03:55:56;66.07;;;32.42;;
39370;SDS011;25099;51.946;4.838;2024-03-22T03:58:22;50.03;;;28.55;;
39370;SDS011;25099;51.946;4.838;2024-03-22T04:00:47;59.47;;;31.55;;
39370;SDS011;25099;51.946;4.838;2024-03-22T04:03:13;56.40;;;31.60;;
39370;SDS011;25099;51.946;4.838;2024-03-22T04:05:39;56.22;;;33.00;;
39370;SDS011;25099;51.946;4.838;2024-03-22T04:08:05;58.92;;;33.05;;
39370;SDS011;25099;51.946;4.838;2024-03-22T04:10:30;62.58;;;33.88;;
39370;SDS011;25099;51.946;4.838;2024-03-22T04:12:56;64.60;;;33.60;;
39370;SDS011;25099;51.946;4.838;2024-03-22T04:15:22;61.35;;;32.75;;
39370;SDS011;25099;51.946;4.838;2024-03-22T04:17:47;65.30;;;35.13;;
39370;SDS011;25099;51.946;4.838;2024-03-22T04:20:13;64.25;;;36.10;;
39370;SDS011;25099;51.946;4.838;2024-03-22T04:22:38;59.67;;;34.22;;
39370;SDS011;25099;51.946;4.838;2024-03-22T04:25:04;66.68;;;35.88;;
39370;SDS011;25099;51.946;4.838;2024-03-22T04:27:30;66.72;;;35.30;;
39370;SDS011;25099;51.946;4.838;2024-03-22T04:29:56;67.47;;;35.95;;
39370;SDS011;25099;51.946;4.838;2024-03-22T04:32:21;62.95;;;34.65;;
39370;SDS011;25099;51.946;4.838;2024-03-22T04:34:47;62.80;;;35.75;;
39370;SDS011;25099;51.946;4.838;2024-03-22T04:37:12;58.75;;;33.78;;
39370;SDS011;25099;51.946;4.838;2024-03-22T04:39:39;60.67;;;34.65;;
39370;SDS011;25099;51.946;4.838;2024-03-22T04:42:05;61.22;;;35.17;;
39370;SDS011;25099;51.946;4.838;2024-03-22T04:44:31;61.33;;;34.45;;
39370;SDS011;25099;51.946;4.838;2024-03-22T04:46:57;61.55;;;33.85;;
39370;SDS011;25099;51.946;4.838;2024-03-22T04:49:22;62.30;;;33.67;;
39370;SDS011;25099;51.946;4.838;2024-03-22T04:51:48;63.03;;;34.35;;
39370;SDS011;25099;51.946;4.838;2024-03-22T04:54:14;68.72;;;36.70;;
39370;SDS011;25099;51.946;4.838;2024-03-22T04:56:39;59.60;;;34.63;;
39370;SDS011;25099;51.946;4.838;2024-03-22T04:59:05;66.82;;;36.13;;
39370;SDS011;25099;51.946;4.838;2024-03-22T05:01:30;66.32;;;35.28;;
39370;SDS011;25099;51.946;4.838;2024-03-22T05:03:56;66.22;;;34.55;;
39370;SDS011;25099;51.946;4.838;2024-03-22T05:06:21;69.07;;;32.13;;
39370;SDS011;25099;51.946;4.838;2024-03-22T05:08:47;58.72;;;32.55;;
39370;SDS011;25099;51.946;4.838;2024-03-22T05:11:12;62.20;;;31.92;;
39370;SDS011;25099;51.946;4.838;2024-03-22T05:13:38;66.35;;;33.40;;
39370;SDS011;25099;51.946;4.838;2024-03-22T05:16:07;61.00;;;31.63;;
39370;SDS011;25099;51.946;4.838;2024-03-22T05:18:32;60.15;;;32.47;;
39370;SDS011;25099;51.946;4.838;2024-03-22T05:20:58;68.22;;;32.17;;
39370;SDS011;25099;51.946;4.838;2024-03-22T05:23:23;57.13;;;31.77;;
39370;SDS011;25099;51.946;4.838;2024-03-22T05:25:49;58.60;;;31.77;;
39370;SDS011;25099;51.946;4.838;2024-03-22T05:28:15;53.28;;;31.10;;
39370;SDS011;25099;51.946;4.838;2024-03-22T05:30:40;59.75;;;31.13;;
39370;SDS011;25099;51.946;4.838;2024-03-22T05:33:06;53.70;;;29.17;;
39370;SDS011;25099;51.946;4.838;2024-03-22T05:35:31;56.65;;;28.30;;
39370;SDS011;25099;51.946;4.838;2024-03-22T05:37:57;52.25;;;29.00;;
39370;SDS011;25099;51.946;4.838;2024-03-22T05:40:22;49.55;;;29.55;;
39370;SDS011;25099;51.946;4.838;2024-03-22T05:42:48;55.00;;;28.77;;
39370;SDS011;25099;51.946;4.838;2024-03-22T05:45:14;50.08;;;27.95;;
39370;SDS011;25099;51.946;4.838;2024-03-22T05:47:39;45.63;;;27.42;;
39370;SDS011;25099;51.946;4.838;2024-03-22T05:50:05;45.42;;;26.73;;
39370;SDS011;25099;51.946;4.838;2024-03-22T05:52:34;53.30;;;29.55;;
39370;SDS011;25099;51.946;4.838;2024-03-22T05:54:59;54.25;;;28.60;;
39370;SDS011;25099;51.946;4.838;2024-03-22T05:57:25;54.83;;;28.45;;
39370;SDS011;25099;51.946;4.838;2024-03-22T05:59:51;47.00;;;27.52;;
39370;SDS011;25099;51.946;4.838;2024-03-22T06:02:18;48.35;;;27.38;;
39370;SDS011;25099;51.946;4.838;2024-03-22T06:04:43;43.42;;;25.77;;
39370;SDS011;25099;51.946;4.838;2024-03-22T06:07:10;46.13;;;26.15;;
39370;SDS011;25099;51.946;4.838;2024-03-22T06:09:35;52.08;;;28.77;;
39370;SDS011;25099;51.946;4.838;2024-03-22T06:12:11;48.90;;;27.30;;
39370;SDS011;25099;51.946;4.838;2024-03-22T06:14:40;44.87;;;26.70;;
39370;SDS011;25099;51.946;4.838;2024-03-22T06:17:08;51.60;;;27.98;;
39370;SDS011;25099;51.946;4.838;2024-03-22T06:19:34;47.28;;;27.38;;
39370;SDS011;25099;51.946;4.838;2024-03-22T06:22:00;52.05;;;26.88;;
39370;SDS011;25099;51.946;4.838;2024-03-22T06:24:26;45.40;;;27.25;;
39370;SDS011;25099;51.946;4.838;2024-03-22T06:26:55;56.55;;;28.95;;
39370;SDS011;25099;51.946;4.838;2024-03-22T06:29:29;60.50;;;29.23;;
39370;SDS011;25099;51.946;4.838;2024-03-22T06:31:55;48.72;;;27.90;;
39370;SDS011;25099;51.946;4.838;2024-03-22T06:34:20;57.60;;;30.65;;
39370;SDS011;25099;51.946;4.838;2024-03-22T06:36:46;56.17;;;30.75;;
39370;SDS011;25099;51.946;4.838;2024-03-22T06:39:12;56.92;;;31.90;;
39370;SDS011;25099;51.946;4.838;2024-03-22T06:41:38;61.70;;;31.33;;
39370;SDS011;25099;51.946;4.838;2024-03-22T06:44:03;57.58;;;30.55;;
39370;SDS011;25099;51.946;4.838;2024-03-22T06:46:29;62.10;;;31.05;;
39370;SDS011;25099;51.946;4.838;2024-03-22T06:48:55;62.42;;;31.45;;
39370;SDS011;25099;51.946;4.838;2024-03-22T06:51:21;56.67;;;31.92;;
39370;SDS011;25099;51.946;4.838;2024-03-22T06:53:46;65.57;;;31.63;;
39370;SDS011;25099;51.946;4.838;2024-03-22T06:56:12;60.72;;;32.58;;
39370;SDS011;25099;51.946;4.838;2024-03-22T06:58:38;59.55;;;31.17;;
39370;SDS011;25099;51.946;4.838;2024-03-22T07:01:04;56.25;;;30.55;;
39370;SDS011;25099;51.946;4.838;2024-03-22T07:03:30;58.47;;;32.30;;
39370;SDS011;25099;51.946;4.838;2024-03-22T07:05:55;60.60;;;32.38;;
39370;SDS011;25099;51.946;4.838;2024-03-22T07:08:22;56.63;;;30.60;;
39370;SDS011;25099;51.946;4.838;2024-03-22T07:10:48;67.22;;;33.28;;
39370;SDS011;25099;51.946;4.838;2024-03-22T07:13:18;55.83;;;30.77;;
39370;SDS011;25099;51.946;4.838;2024-03-22T07:15:47;52.60;;;29.55;;
39370;SDS011;25099;51.946;4.838;2024-03-22T07:18:13;59.50;;;28.65;;
39370;SDS011;25099;51.946;4.838;2024-03-22T07:20:39;48.35;;;26.52;;
39370;SDS011;25099;51.946;4.838;2024-03-22T07:23:04;54.05;;;27.55;;
39370;SDS011;25099;51.946;4.838;2024-03-22T07:25:30;48.88;;;26.10;;
39370;SDS011;25099;51.946;4.838;2024-03-22T07:27:56;57.50;;;25.33;;
39370;SDS011;25099;51.946;4.838;2024-03-22T07:30:22;54.33;;;27.25;;
39370;SDS011;25099;51.946;4.838;2024-03-22T07:32:47;55.08;;;27.10;;
39370;SDS011;25099;51.946;4.838;2024-03-22T07:35:13;45.78;;;25.00;;
39370;SDS011;25099;51.946;4.838;2024-03-22T07:37:38;53.15;;;26.30;;
39370;SDS011;25099;51.946;4.838;2024-03-22T07:40:04;51.10;;;25.05;;
39370;SDS011;25099;51.946;4.838;2024-03-22T07:42:30;49.25;;;25.17;;
39370;SDS011;25099;51.946;4.838;2024-03-22T07:44:56;44.13;;;22.60;;
39370;SDS011;25099;51.946;4.838;2024-03-22T07:47:21;48.92;;;22.75;;
39370;SDS011;25099;51.946;4.838;2024-03-22T07:49:47;46.03;;;22.23;;
39370;SDS011;25099;51.946;4.838;2024-03-22T07:52:12;49.20;;;22.60;;
39370;SDS011;25099;51.946;4.838;2024-03-22T07:54:38;55.22;;;21.52;;
39370;SDS011;25099;51.946;4.838;2024-03-22T07:57:04;42.00;;;20.15;;
39370;SDS011;25099;51.946;4.838;2024-03-22T07:59:32;52.80;;;21.45;;
39370;SDS011;25099;51.946;4.838;2024-03-22T08:02:00;41.20;;;20.73;;
39370;SDS011;25099;51.946;4.838;2024-03-22T08:04:26;41.47;;;19.20;;
39370;SDS011;25099;51.946;4.838;2024-03-22T08:06:53;40.63;;;18.35;;
39370;SDS011;25099;51.946;4.838;2024-03-22T08:09:18;43.80;;;18.20;;
39370;SDS011;25099;51.946;4.838;2024-03-22T08:11:44;39.25;;;16.80;;
39370;SDS011;25099;51.946;4.838;2024-03-22T08:14:10;35.28;;;17.60;;
39370;SDS011;25099;51.946;4.838;2024-03-22T08:16:35;28.20;;;15.38;;
39370;SDS011;25099;51.946;4.838;2024-03-22T08:19:01;35.38;;;15.10;;
39370;SDS011;25099;51.946;4.838;2024-03-22T08:21:27;35.22;;;16.60;;
39370;SDS011;25099;51.946;4.838;2024-03-22T08:23:52;31.75;;;15.23;;
39370;SDS011;25099;51.946;4.838;2024-03-22T08:26:18;40.45;;;16.20;;
39370;SDS011;25099;51.946;4.838;2024-03-22T08:28:44;38.45;;;16.10;;
39370;SDS011;25099;51.946;4.838;2024-03-22T08:31:20;38.70;;;14.35;;
39370;SDS011;25099;51.946;4.838;2024-03-22T08:33:50;35.40;;;15.77;;
39370;SDS011;25099;51.946;4.838;2024-03-22T08:36:20;31.85;;;14.93;;
39370;SDS011;25099;51.946;4.838;2024-03-22T08:38:46;29.52;;;14.82;;
39370;SDS011;25099;51.946;4.838;2024-03-22T08:41:12;29.75;;;14.05;;
39370;SDS011;25099;51.946;4.838;2024-03-22T08:43:38;30.58;;;13.95;;
39370;SDS011;25099;51.946;4.838;2024-03-22T08:46:09;34.08;;;14.45;;
39370;SDS011;25099;51.946;4.838;2024-03-22T08:48:43;37.70;;;14.30;;
39370;SDS011;25099;51.946;4.838;2024-03-22T08:51:09;31.17;;;14.02;;
39370;SDS011;25099;51.946;4.838;2024-03-22T08:53:34;37.72;;;13.50;;
39370;SDS011;25099;51.946;4.838;2024-03-22T08:56:00;34.75;;;13.85;;
39370;SDS011;25099;51.946;4.838;2024-03-22T08:58:38;31.05;;;13.85;;
39370;SDS011;25099;51.946;4.838;2024-03-22T09:01:06;34.35;;;13.88;;
39370;SDS011;25099;51.946;4.838;2024-03-22T09:03:34;34.75;;;14.15;;
39370;SDS011;25099;51.946;4.838;2024-03-22T09:06:16;33.63;;;14.13;;
39370;SDS011;25099;51.946;4.838;2024-03-22T09:08:42;34.63;;;14.07;;
39370;SDS011;25099;51.946;4.838;2024-03-22T09:11:08;31.83;;;14.32;;
39370;SDS011;25099;51.946;4.838;2024-03-22T09:13:34;31.63;;;13.93;;
39370;SDS011;25099;51.946;4.838;2024-03-22T09:16:00;33.92;;;14.65;;
39370;SDS011;25099;51.946;4.838;2024-03-22T09:18:26;37.28;;;14.15;;
39370;SDS011;25099;51.946;4.838;2024-03-22T09:20:52;37.25;;;14.27;;
39370;SDS011;25099;51.946;4.838;2024-03-22T09:23:19;35.47;;;15.15;;
39370;SDS011;25099;51.946;4.838;2024-03-22T09:25:45;38.13;;;13.45;;
39370;SDS011;25099;51.946;4.838;2024-03-22T09:28:15;26.58;;;13.50;;
39370;SDS011;25099;51.946;4.838;2024-03-22T09:30:41;27.52;;;13.20;;
39370;SDS011;25099;51.946;4.838;2024-03-22T09:33:08;38.63;;;14.95;;
39370;SDS011;25099;51.946;4.838;2024-03-22T09:35:34;42.00;;;15.25;;
39370;SDS011;25099;51.946;4.838;2024-03-22T09:37:59;26.67;;;13.20;;
39370;SDS011;25099;51.946;4.838;2024-03-22T09:40:25;29.38;;;15.23;;
39370;SDS011;25099;51.946;4.838;2024-03-22T09:42:50;24.40;;;12.93;;
39370;SDS011;25099;51.946;4.838;2024-03-22T09:45:18;36.28;;;13.32;;
39370;SDS011;25099;51.946;4.838;2024-03-22T09:47:45;32.92;;;13.80;;
39370;SDS011;25099;51.946;4.838;2024-03-22T09:50:14;25.55;;;12.50;;
39370;SDS011;25099;51.946;4.838;2024-03-22T09:52:41;26.58;;;12.48;;
39370;SDS011;25099;51.946;4.838;2024-03-22T09:55:08;24.70;;;13.02;;
39370;SDS011;25099;51.946;4.838;2024-03-22T09:57:35;27.73;;;13.55;;
39370;SDS011;25099;51.946;4.838;2024-03-22T10:00:05;39.83;;;15.40;;
39370;SDS011;25099;51.946;4.838;2024-03-22T10:02:32;27.35;;;14.23;;
39370;SDS011;25099;51.946;4.838;2024-03-22T10:04:59;25.73;;;15.25;;
39370;SDS011;25099;51.946;4.838;2024-03-22T10:07:25;31.10;;;15.07;;
39370;SDS011;25099;51.946;4.838;2024-03-22T10:09:57;27.17;;;14.60;;
39370;SDS011;25099;51.946;4.838;2024-03-22T10:12:23;30.05;;;15.88;;
39370;SDS011;25099;51.946;4.838;2024-03-22T10:14:50;30.92;;;14.88;;
39370;SDS011;25099;51.946;4.838;2024-03-22T10:17:17;32.72;;;15.60;;
39370;SDS011;25099;51.946;4.838;2024-03-22T10:19:43;27.17;;;14.95;;
39370;SDS011;25099;51.946;4.838;2024-03-22T10:22:08;33.83;;;16.73;;
39370;SDS011;25099;51.946;4.838;2024-03-22T10:24:35;26.42;;;16.40;;
39370;SDS011;25099;51.946;4.838;2024-03-22T10:27:01;33.55;;;16.45;;
39370;SDS011;25099;51.946;4.838;2024-03-22T10:29:28;38.63;;;17.58;;
39370;SDS011;25099;51.946;4.838;2024-03-22T10:31:54;45.95;;;18.63;;
39370;SDS011;25099;51.946;4.838;2024-03-22T10:34:21;43.85;;;17.77;;
39370;SDS011;25099;51.946;4.838;2024-03-22T10:36:47;29.63;;;16.17;;
39370;SDS011;25099;51.946;4.838;2024-03-22T10:39:15;33.55;;;17.35;;
39370;SDS011;25099;51.946;4.838;2024-03-22T10:41:44;30.15;;;16.52;;
39370;SDS011;25099;51.946;4.838;2024-03-22T10:44:10;37.05;;;18.25;;
39370;SDS011;25099;51.946;4.838;2024-03-22T10:46:37;39.22;;;18.23;;
39370;SDS011;25099;51.946;4.838;2024-03-22T10:49:05;30.35;;;16.45;;
39370;SDS011;25099;51.946;4.838;2024-03-22T10:51:31;33.67;;;16.20;;
39370;SDS011;25099;51.946;4.838;2024-03-22T10:54:00;28.70;;;15.60;;
39370;SDS011;25099;51.946;4.838;2024-03-22T10:56:29;30.73;;;16.60;;
39370;SDS011;25099;51.946;4.838;2024-03-22T10:58:56;34.78;;;15.50;;
39370;SDS011;25099;51.946;4.838;2024-03-22T11:01:23;29.25;;;16.65;;
39370;SDS011;25099;51.946;4.838;2024-03-22T11:03:49;26.33;;;14.40;;
39370;SDS011;25099;51.946;4.838;2024-03-22T11:06:18;31.38;;;14.90;;
39370;SDS011;25099;51.946;4.838;2024-03-22T11:08:49;27.25;;;13.88;;
39370;SDS011;25099;51.946;4.838;2024-03-22T11:11:17;24.58;;;14.25;;
39370;SDS011;25099;51.946;4.838;2024-03-22T11:13:46;28.77;;;15.18;;
39370;SDS011;25099;51.946;4.838;2024-03-22T11:16:13;21.60;;;12.63;;
39370;SDS011;25099;51.946;4.838;2024-03-22T11:18:40;30.33;;;12.38;;
39370;SDS011;25099;51.946;4.838;2024-03-22T11:21:05;26.30;;;12.85;;
39370;SDS011;25099;51.946;4.838;2024-03-22T11:23:33;22.85;;;12.75;;
39370;SDS011;25099;51.946;4.838;2024-03-22T11:26:02;16.00;;;11.70;;
39370;SDS011;25099;51.946;4.838;2024-03-22T11:28:29;18.73;;;11.70;;
39370;SDS011;25099;51.946;4.838;2024-03-22T11:30:55;15.73;;;11.68;;
39370;SDS011;25099;51.946;4.838;2024-03-22T11:33:21;23.05;;;11.93;;
39370;SDS011;25099;51.946;4.838;2024-03-22T11:35:47;16.83;;;12.25;;
39370;SDS011;25099;51.946;4.838;2024-03-22T11:38:14;15.90;;;10.20;;
39370;SDS011;25099;51.946;4.838;2024-03-22T11:40:40;15.23;;;10.68;;
39370;SDS011;25099;51.946;4.838;2024-03-22T11:43:06;10.70;;;9.05;;
39370;SDS011;25099;51.946;4.838;2024-03-22T11:45:32;15.52;;;11.10;;
39370;SDS011;25099;51.946;4.838;2024-03-22T11:48:01;16.55;;;10.80;;
39370;SDS011;25099;51.946;4.838;2024-03-22T11:50:28;12.27;;;9.90;;
39370;SDS011;25099;51.946;4.838;2024-03-22T11:52:53;12.73;;;9.73;;
39370;SDS011;25099;51.946;4.838;2024-03-22T11:55:19;11.75;;;10.02;;
39370;SDS011;25099;51.946;4.838;2024-03-22T11:57:48;16.13;;;10.50;;
39370;SDS011;25099;51.946;4.838;2024-03-22T12:00:14;14.25;;;10.88;;
39370;SDS011;25099;51.946;4.838;2024-03-22T12:02:42;20.20;;;11.55;;
39370;SDS011;25099;51.946;4.838;2024-03-22T12:05:08;18.05;;;12.07;;
39370;SDS011;25099;51.946;4.838;2024-03-22T12:07:34;15.23;;;11.45;;
39370;SDS011;25099;51.946;4.838;2024-03-22T12:10:00;15.93;;;12.20;;
39370;SDS011;25099;51.946;4.838;2024-03-22T12:12:26;20.92;;;13.70;;
39370;SDS011;25099;51.946;4.838;2024-03-22T12:14:51;22.92;;;13.88;;
39370;SDS011;25099;51.946;4.838;2024-03-22T12:17:17;20.67;;;13.45;;
39370;SDS011;25099;51.946;4.838;2024-03-22T12:19:43;18.65;;;14.30;;
39370;SDS011;25099;51.946;4.838;2024-03-22T12:22:09;29.60;;;14.38;;
39370;SDS011;25099;51.946;4.838;2024-03-22T12:24:35;23.33;;;14.63;;
39370;SDS011;25099;51.946;4.838;2024-03-22T12:27:01;20.52;;;14.77;;
39370;SDS011;25099;51.946;4.838;2024-03-22T12:29:28;30.35;;;16.08;;
39370;SDS011;25099;51.946;4.838;2024-03-22T12:31:53;23.83;;;14.82;;
39370;SDS011;25099;51.946;4.838;2024-03-22T12:34:19;24.02;;;14.85;;
39370;SDS011;25099;51.946;4.838;2024-03-22T12:36:45;17.38;;;14.40;;
39370;SDS011;25099;51.946;4.838;2024-03-22T12:39:10;22.25;;;14.25;;
39370;SDS011;25099;51.946;4.838;2024-03-22T12:41:36;26.25;;;14.73;;
39370;SDS011;25099;51.946;4.838;2024-03-22T12:44:02;21.52;;;14.63;;
39370;SDS011;25099;51.946;4.838;2024-03-22T12:46:28;20.90;;;14.23;;
39370;SDS011;25099;51.946;4.838;2024-03-22T12:48:54;23.75;;;14.20;;
39370;SDS011;25099;51.946;4.838;2024-03-22T12:51:19;26.50;;;14.65;;
39370;SDS011;25099;51.946;4.838;2024-03-22T12:53:46;22.33;;;13.88;;
39370;SDS011;25099;51.946;4.838;2024-03-22T12:56:12;19.42;;;12.00;;
39370;SDS011;25099;51.946;4.838;2024-03-22T12:58:38;24.55;;;12.15;;
39370;SDS011;25099;51.946;4.838;2024-03-22T13:01:08;20.48;;;9.05;;
39370;SDS011;25099;51.946;4.838;2024-03-22T13:03:35;14.93;;;8.27;;
39370;SDS011;25099;51.946;4.838;2024-03-22T13:06:01;16.98;;;8.93;;
39370;SDS011;25099;51.946;4.838;2024-03-22T13:08:27;15.70;;;9.38;;
39370;SDS011;25099;51.946;4.838;2024-03-22T13:10:52;19.42;;;9.60;;
39370;SDS011;25099;51.946;4.838;2024-03-22T13:13:18;20.00;;;10.93;;
39370;SDS011;25099;51.946;4.838;2024-03-22T13:15:44;22.10;;;9.57;;
39370;SDS011;25099;51.946;4.838;2024-03-22T13:18:11;18.25;;;10.38;;
39370;SDS011;25099;51.946;4.838;2024-03-22T13:20:37;20.33;;;9.95;;
39370;SDS011;25099;51.946;4.838;2024-03-22T13:23:03;21.00;;;8.55;;
39370;SDS011;25099;51.946;4.838;2024-03-22T13:25:29;17.13;;;7.30;;
39370;SDS011;25099;51.946;4.838;2024-03-22T13:27:55;16.95;;;8.32;;
39370;SDS011;25099;51.946;4.838;2024-03-22T13:30:21;14.65;;;8.00;;
39370;SDS011;25099;51.946;4.838;2024-03-22T13:32:46;20.08;;;8.07;;
39370;SDS011;25099;51.946;4.838;2024-03-22T13:35:12;15.57;;;8.73;;
39370;SDS011;25099;51.946;4.838;2024-03-22T13:37:39;17.58;;;8.43;;
39370;SDS011;25099;51.946;4.838;2024-03-22T13:40:05;19.42;;;8.00;;
39370;SDS011;25099;51.946;4.838;2024-03-22T13:42:31;13.80;;;7.47;;
39370;SDS011;25099;51.946;4.838;2024-03-22T13:44:57;15.68;;;7.78;;
39370;SDS011;25099;51.946;4.838;2024-03-22T13:47:23;16.65;;;8.02;;
39370;SDS011;25099;51.946;4.838;2024-03-22T13:49:49;22.38;;;7.80;;
39370;SDS011;25099;51.946;4.838;2024-03-22T13:52:15;11.32;;;6.80;;
39370;SDS011;25099;51.946;4.838;2024-03-22T13:54:40;16.95;;;8.10;;
39370;SDS011;25099;51.946;4.838;2024-03-22T13:57:06;21.48;;;8.05;;
39370;SDS011;25099;51.946;4.838;2024-03-22T13:59:31;17.90;;;7.70;;
39370;SDS011;25099;51.946;4.838;2024-03-22T14:01:57;20.52;;;8.35;;
39370;SDS011;25099;51.946;4.838;2024-03-22T14:04:23;17.40;;;8.75;;
39370;SDS011;25099;51.946;4.838;2024-03-22T14:06:51;17.08;;;8.85;;
39370;SDS011;25099;51.946;4.838;2024-03-22T14:09:16;23.50;;;9.90;;
39370;SDS011;25099;51.946;4.838;2024-03-22T14:11:43;17.25;;;10.65;;
39370;SDS011;25099;51.946;4.838;2024-03-22T14:14:10;19.20;;;9.75;;
39370;SDS011;25099;51.946;4.838;2024-03-22T14:16:37;19.98;;;11.27;;